Time;durP1;ratioP1;P1;durP2;ratioP2;P2;SDS_P1;SDS_P2;PMS_P1;PMS_P2;Temp;Humidity;BMP_temperature;BMP_pressure;BME280_temperature;BME280_humidity;BME280_pressure;Samples;Min_cycle;Max_cycle;Signal;HPM_P1;HPM_P2
2023/09/12 00:00:16;;;;;;;41.05;29.48;;;;;;;;;;4993364;28;20045;-71
2023/09/12 00:02:42;;;;;;;43.38;28.30;;;;;;;;;;4993127;28;20378;-72
2023/09/12 00:05:08;;;;;;;41.03;29.40;;;;;;;;;;4992913;28;20042;-72
2023/09/12 00:07:35;;;;;;;46.05;30.48;;;;;;;;;;4993334;28;20077;-72
2023/09/12 00:10:01;;;;;;;43.78;30.20;;;;;;;;;;4991853;28;20049;-72
2023/09/12 00:12:28;;;;;;;46.20;30.13;;;;;;;;;;4993419;28;20042;-72
2023/09/12 00:14:54;;;;;;;41.72;28.20;;;;;;;;;;4991286;28;20046;-72
2023/09/12 00:17:20;;;;;;;42.08;29.48;;;;;;;;;;4991588;28;20096;-71
2023/09/12 00:19:47;;;;;;;46.05;29.77;;;;;;;;;;4991458;28;20082;-71
2023/09/12 00:22:13;;;;;;;43.25;29.08;;;;;;;;;;4993021;28;20489;-71
2023/09/12 00:24:39;;;;;;;46.33;29.85;;;;;;;;;;4993147;28;20122;-71
2023/09/12 00:27:05;;;;;;;40.97;28.42;;;;;;;;;;4991094;28;20046;-72
2023/09/12 00:29:31;;;;;;;42.72;30.02;;;;;;;;;;4993006;28;20081;-71
2023/09/12 00:31:57;;;;;;;43.78;30.05;;;;;;;;;;4991732;28;20500;-72
2023/09/12 00:34:23;;;;;;;42.17;29.50;;;;;;;;;;4990935;28;20104;-72
2023/09/12 00:36:49;;;;;;;42.67;28.98;;;;;;;;;;4993029;28;20049;-72
2023/09/12 00:39:15;;;;;;;43.47;29.73;;;;;;;;;;4992860;28;20460;-72
2023/09/12 00:41:41;;;;;;;44.28;29.80;;;;;;;;;;4992405;28;20042;-71
2023/09/12 00:44:07;;;;;;;43.17;29.58;;;;;;;;;;4992301;28;20084;-72
2023/09/12 00:46:33;;;;;;;48.92;31.45;;;;;;;;;;4992544;28;20042;-72
2023/09/12 00:48:59;;;;;;;46.65;30.60;;;;;;;;;;4992833;28;20038;-72
2023/09/12 00:51:26;;;;;;;46.42;29.70;;;;;;;;;;4991464;28;20046;-72
2023/09/12 00:53:53;;;;;;;43.42;28.80;;;;;;;;;;4983109;28;20050;-72
2023/09/12 00:56:19;;;;;;;47.72;32.13;;;;;;;;;;4992011;28;20038;-71
2023/09/12 00:58:46;;;;;;;50.03;32.38;;;;;;;;;;4992435;28;20118;-71
2023/09/12 01:01:12;;;;;;;48.67;31.23;;;;;;;;;;4992551;28;20045;-72
2023/09/12 01:03:38;;;;;;;46.58;31.05;;;;;;;;;;4992705;28;20066;-72
2023/09/12 01:06:05;;;;;;;48.42;31.55;;;;;;;;;;4975050;28;20046;-72
2023/09/12 01:08:31;;;;;;;49.67;31.83;;;;;;;;;;4987469;28;20047;-72
2023/09/12 01:10:58;;;;;;;44.80;29.42;;;;;;;;;;4987936;28;20073;-73
2023/09/12 01:13:24;;;;;;;44.90;29.45;;;;;;;;;;4992866;28;20046;-74
2023/09/12 01:15:50;;;;;;;43.25;30.10;;;;;;;;;;4992030;28;20038;-74
2023/09/12 01:18:16;;;;;;;43.58;28.60;;;;;;;;;;4992519;28;20138;-72
2023/09/12 01:20:48;;;;;;;42.13;29.40;;;;;;;;;;4990826;28;20046;-72
2023/09/12 01:23:24;;;;;;;41.25;30.17;;;;;;;;;;4996094;28;20046;-72
2023/09/12 01:26:09;;;;;;;43.03;29.33;;;;;;;;;;4994531;28;20473;-72
2023/09/12 01:28:38;;;;;;;43.15;29.35;;;;;;;;;;4995267;28;20125;-72
2023/09/12 01:31:05;;;;;;;44.17;29.92;;;;;;;;;;4994956;28;20045;-72
2023/09/12 01:33:31;;;;;;;42.95;29.40;;;;;;;;;;4994480;28;20050;-72
2023/09/12 01:35:57;;;;;;;50.53;30.67;;;;;;;;;;4995324;28;20106;-72
2023/09/12 01:38:23;;;;;;;46.78;29.27;;;;;;;;;;4996446;28;20038;-73
2023/09/12 01:40:50;;;;;;;40.53;28.38;;;;;;;;;;4996147;28;20467;-72
2023/09/12 01:43:18;;;;;;;39.97;26.35;;;;;;;;;;4996020;28;20050;-72
2023/09/12 01:45:45;;;;;;;44.40;30.23;;;;;;;;;;4995438;28;20168;-72
2023/09/12 01:48:12;;;;;;;39.80;27.45;;;;;;;;;;4996156;28;20042;-72
2023/09/12 01:50:38;;;;;;;44.40;28.83;;;;;;;;;;4995233;28;20554;-73
2023/09/12 01:53:04;;;;;;;42.42;28.65;;;;;;;;;;4996106;28;20039;-72
2023/09/12 01:55:31;;;;;;;40.33;26.05;;;;;;;;;;4994452;28;20053;-72
2023/09/12 01:57:57;;;;;;;39.45;26.95;;;;;;;;;;4995952;28;20046;-72
2023/09/12 02:00:23;;;;;;;37.63;26.75;;;;;;;;;;4996116;28;20047;-72
2023/09/12 02:02:51;;;;;;;41.17;28.45;;;;;;;;;;4995682;28;20039;-72
2023/09/12 02:05:21;;;;;;;33.10;24.45;;;;;;;;;;4995463;28;20097;-72
2023/09/12 02:07:48;;;;;;;34.88;26.30;;;;;;;;;;4995545;28;20404;-72
2023/09/12 02:10:14;;;;;;;35.20;25.70;;;;;;;;;;4995792;28;20073;-72
2023/09/12 02:12:40;;;;;;;32.95;23.48;;;;;;;;;;4995452;28;20488;-72
2023/09/12 02:15:07;;;;;;;41.38;26.42;;;;;;;;;;4994004;28;20050;-72
2023/09/12 02:17:33;;;;;;;30.80;21.25;;;;;;;;;;4993495;28;20042;-73
2023/09/12 02:19:59;;;;;;;34.58;23.90;;;;;;;;;;4994053;28;20129;-73
2023/09/12 02:22:25;;;;;;;30.05;20.65;;;;;;;;;;4994692;28;20145;-72
2023/09/12 02:24:51;;;;;;;33.13;21.13;;;;;;;;;;4994074;28;20042;-72
2023/09/12 02:27:17;;;;;;;32.53;20.98;;;;;;;;;;4993486;28;20507;-72
2023/09/12 02:29:43;;;;;;;31.90;22.33;;;;;;;;;;4994971;28;20049;-72
2023/09/12 02:32:09;;;;;;;35.85;21.25;;;;;;;;;;4994697;28;20209;-72
2023/09/12 02:34:36;;;;;;;41.65;22.98;;;;;;;;;;4994647;28;20100;-71
2023/09/12 02:37:01;;;;;;;35.80;22.60;;;;;;;;;;4993478;28;20177;-71
2023/09/12 02:39:28;;;;;;;41.03;27.13;;;;;;;;;;4994448;28;20525;-71
2023/09/12 02:41:54;;;;;;;31.02;21.60;;;;;;;;;;4994675;28;20401;-71
2023/09/12 02:44:20;;;;;;;27.27;20.38;;;;;;;;;;4994984;28;20038;-72
2023/09/12 02:46:46;;;;;;;34.35;21.58;;;;;;;;;;4994195;28;20042;-72
2023/09/12 02:49:12;;;;;;;78.78;27.63;;;;;;;;;;4993759;28;20044;-72
2023/09/12 02:51:41;;;;;;;121.28;29.90;;;;;;;;;;4993187;28;20562;-73
2023/09/12 02:54:08;;;;;;;38.15;26.65;;;;;;;;;;4986930;28;20114;-72
2023/09/12 02:56:34;;;;;;;40.53;25.73;;;;;;;;;;4992614;28;20061;-72
2023/09/12 02:59:00;;;;;;;37.00;24.85;;;;;;;;;;4994982;28;20042;-71
2023/09/12 03:01:28;;;;;;;32.20;23.50;;;;;;;;;;4994105;28;20451;-71
2023/09/12 03:03:54;;;;;;;59.35;26.48;;;;;;;;;;4993266;28;20038;-71
2023/09/12 03:06:20;;;;;;;52.00;26.05;;;;;;;;;;4993557;28;20121;-71
2023/09/12 03:08:47;;;;;;;59.20;24.50;;;;;;;;;;4994794;28;20341;-71
2023/09/12 03:11:13;;;;;;;50.40;25.17;;;;;;;;;;4993052;28;20042;-73
2023/09/12 03:13:39;;;;;;;37.05;24.98;;;;;;;;;;4993997;28;20042;-72
2023/09/12 03:16:05;;;;;;;54.55;26.50;;;;;;;;;;4976035;28;20427;-71
2023/09/12 03:18:32;;;;;;;71.25;27.27;;;;;;;;;;4993106;28;20054;-72
2023/09/12 03:20:58;;;;;;;87.25;29.92;;;;;;;;;;4994205;28;20477;-72
2023/09/12 03:23:24;;;;;;;82.57;29.70;;;;;;;;;;4993778;28;20042;-72
2023/09/12 03:25:50;;;;;;;80.68;28.73;;;;;;;;;;4993600;28;20542;-72
2023/09/12 03:28:16;;;;;;;58.25;26.63;;;;;;;;;;4992610;28;20481;-72
2023/09/12 03:30:42;;;;;;;47.33;26.17;;;;;;;;;;4993709;28;20041;-72
2023/09/12 03:33:08;;;;;;;65.97;28.13;;;;;;;;;;4994043;28;20047;-73
2023/09/12 03:35:34;;;;;;;85.07;28.80;;;;;;;;;;4992402;28;20046;-73
2023/09/12 03:38:00;;;;;;;127.25;30.63;;;;;;;;;;4993564;28;20042;-72
2023/09/12 03:40:29;;;;;;;77.13;28.80;;;;;;;;;;4992643;28;20042;-73
2023/09/12 03:42:55;;;;;;;94.97;29.60;;;;;;;;;;4992085;28;20086;-72
2023/09/12 03:45:21;;;;;;;69.90;27.45;;;;;;;;;;4992075;28;20039;-72
2023/09/12 03:47:47;;;;;;;105.90;30.50;;;;;;;;;;4993462;28;20424;-72
2023/09/12 03:50:16;;;;;;;98.10;28.80;;;;;;;;;;4993617;28;20034;-72
2023/09/12 03:52:42;;;;;;;62.30;28.20;;;;;;;;;;4993780;28;20038;-72
2023/09/12 03:55:08;;;;;;;56.78;27.00;;;;;;;;;;4992880;28;20548;-72
2023/09/12 03:57:34;;;;;;;51.63;26.08;;;;;;;;;;4991638;28;20044;-73
2023/09/12 04:00:03;;;;;;;62.88;27.20;;;;;;;;;;4993753;28;20038;-73
2023/09/12 04:02:29;;;;;;;51.50;26.70;;;;;;;;;;4990951;28;20042;-72
2023/09/12 04:04:59;;;;;;;51.40;28.50;;;;;;;;;;4988595;28;20042;-72
2023/09/12 04:07:25;;;;;;;40.20;26.92;;;;;;;;;;4992035;28;20042;-72
2023/09/12 04:09:51;;;;;;;74.45;29.38;;;;;;;;;;4993285;28;20080;-72
2023/09/12 04:12:17;;;;;;;44.05;27.33;;;;;;;;;;4991890;28;20043;-73
2023/09/12 04:14:43;;;;;;;51.45;27.42;;;;;;;;;;4993414;28;20034;-72
2023/09/12 04:17:09;;;;;;;41.13;26.77;;;;;;;;;;4993084;28;20160;-72
2023/09/12 04:19:35;;;;;;;44.47;27.08;;;;;;;;;;4992248;28;20038;-73
2023/09/12 04:22:01;;;;;;;51.17;27.45;;;;;;;;;;4992853;28;20157;-72
2023/09/12 04:24:27;;;;;;;57.10;27.38;;;;;;;;;;4991667;28;20038;-72
2023/09/12 04:26:54;;;;;;;47.35;28.65;;;;;;;;;;4992822;28;20038;-72
2023/09/12 04:29:20;;;;;;;56.40;28.13;;;;;;;;;;4991636;28;20026;-72
2023/09/12 04:31:46;;;;;;;39.25;27.70;;;;;;;;;;4992884;28;20031;-72
2023/09/12 04:34:12;;;;;;;41.42;25.95;;;;;;;;;;4993181;28;20436;-72
2023/09/12 04:36:38;;;;;;;70.07;28.15;;;;;;;;;;4992007;28;20040;-72
2023/09/12 04:39:05;;;;;;;115.40;31.27;;;;;;;;;;4992837;28;20498;-72
2023/09/12 04:41:31;;;;;;;44.17;27.42;;;;;;;;;;4992839;28;20121;-72
2023/09/12 04:43:58;;;;;;;50.92;27.90;;;;;;;;;;4991506;28;20045;-73
2023/09/12 04:46:24;;;;;;;71.90;28.60;;;;;;;;;;4992214;28;20047;-73
2023/09/12 04:48:50;;;;;;;76.88;28.30;;;;;;;;;;4992502;28;20037;-72
2023/09/12 04:51:17;;;;;;;51.95;27.88;;;;;;;;;;4992892;28;20058;-72
2023/09/12 04:53:44;;;;;;;55.67;29.45;;;;;;;;;;4992235;28;20053;-73
2023/09/12 04:56:10;;;;;;;49.67;28.33;;;;;;;;;;4991983;28;20046;-72
2023/09/12 04:58:36;;;;;;;73.60;28.50;;;;;;;;;;4992442;28;20048;-72
2023/09/12 05:01:02;;;;;;;76.07;28.63;;;;;;;;;;4992585;28;20068;-73
2023/09/12 05:03:28;;;;;;;53.03;27.48;;;;;;;;;;4992108;28;20507;-72
2023/09/12 05:05:54;;;;;;;50.78;27.77;;;;;;;;;;4992416;28;20034;-72
2023/09/12 05:08:20;;;;;;;51.25;28.08;;;;;;;;;;4992539;28;20036;-72
2023/09/12 05:10:46;;;;;;;51.80;28.83;;;;;;;;;;4991042;28;20034;-72
2023/09/12 05:13:12;;;;;;;58.63;29.48;;;;;;;;;;4991005;28;20491;-72
2023/09/12 05:15:39;;;;;;;42.22;28.17;;;;;;;;;;4992503;28;20067;-72
2023/09/12 05:18:05;;;;;;;51.60;28.23;;;;;;;;;;4991890;28;20104;-72
2023/09/12 05:20:32;;;;;;;64.88;30.25;;;;;;;;;;4991404;28;20049;-72
2023/09/12 05:22:58;;;;;;;58.75;29.25;;;;;;;;;;4992622;28;20070;-72
2023/09/12 05:25:24;;;;;;;52.90;28.02;;;;;;;;;;4991742;28;20081;-72
2023/09/12 05:27:50;;;;;;;52.25;28.25;;;;;;;;;;4992217;28;20109;-73
2023/09/12 05:30:16;;;;;;;52.10;27.83;;;;;;;;;;4992550;28;20034;-72
2023/09/12 05:32:42;;;;;;;61.22;29.90;;;;;;;;;;4992512;28;20074;-72
2023/09/12 05:35:08;;;;;;;51.25;28.88;;;;;;;;;;4991899;28;20045;-72
2023/09/12 05:37:34;;;;;;;65.28;29.40;;;;;;;;;;4991850;28;20037;-72
2023/09/12 05:40:00;;;;;;;51.95;28.67;;;;;;;;;;4992669;28;20465;-72
2023/09/12 05:42:26;;;;;;;52.75;29.58;;;;;;;;;;4988935;28;20046;-72
2023/09/12 05:44:53;;;;;;;51.80;30.17;;;;;;;;;;4987274;28;20443;-72
2023/09/12 05:47:19;;;;;;;46.40;30.70;;;;;;;;;;4990537;28;20124;-72
2023/09/12 05:49:45;;;;;;;50.25;28.73;;;;;;;;;;4992259;28;20038;-72
2023/09/12 05:52:11;;;;;;;47.00;29.00;;;;;;;;;;4991619;28;20034;-72
2023/09/12 05:54:39;;;;;;;53.60;29.90;;;;;;;;;;4992249;28;20144;-72
2023/09/12 05:57:05;;;;;;;51.88;30.45;;;;;;;;;;4992160;28;20042;-72
2023/09/12 05:59:31;;;;;;;58.55;31.23;;;;;;;;;;4991557;28;20048;-72
2023/09/12 06:01:57;;;;;;;56.78;31.23;;;;;;;;;;4990968;28;20125;-72
2023/09/12 06:04:23;;;;;;;60.35;31.55;;;;;;;;;;4990267;28;20400;-73
2023/09/12 06:06:49;;;;;;;49.78;30.58;;;;;;;;;;4991889;28;20038;-72
2023/09/12 06:09:15;;;;;;;50.88;30.63;;;;;;;;;;4992105;28;20044;-73
2023/09/12 06:11:40;;;;;;;53.78;31.15;;;;;;;;;;4994476;28;20038;-72
2023/09/12 06:14:06;;;;;;;55.80;31.83;;;;;;;;;;4995283;28;20114;-73
2023/09/12 06:16:32;;;;;;;57.90;32.38;;;;;;;;;;4995025;28;20034;-72
2023/09/12 06:18:58;;;;;;;53.35;32.95;;;;;;;;;;4995154;28;20076;-73
2023/09/12 06:21:24;;;;;;;56.85;33.25;;;;;;;;;;4995597;28;20042;-72
2023/09/12 06:24:10;;;;;;;57.30;32.05;;;;;;;;;;4995094;28;20061;-73
2023/09/12 06:26:36;;;;;;;57.47;32.83;;;;;;;;;;4995116;28;20049;-73
2023/09/12 06:29:02;;;;;;;58.33;33.65;;;;;;;;;;4994966;28;20099;-72
2023/09/12 06:31:29;;;;;;;55.28;32.50;;;;;;;;;;4993814;28;20038;-73
2023/09/12 06:33:55;;;;;;;55.45;32.67;;;;;;;;;;4993825;28;20480;-73
2023/09/12 06:36:21;;;;;;;64.82;33.45;;;;;;;;;;4994942;28;20038;-73
2023/09/12 06:38:46;;;;;;;55.78;32.20;;;;;;;;;;4995263;28;20448;-72
2023/09/12 06:41:12;;;;;;;58.70;32.47;;;;;;;;;;4994063;28;20054;-72
2023/09/12 06:43:38;;;;;;;60.63;33.45;;;;;;;;;;4987459;28;20246;-72
2023/09/12 06:46:05;;;;;;;56.20;31.75;;;;;;;;;;4994741;28;20049;-72
2023/09/12 06:48:31;;;;;;;57.88;32.28;;;;;;;;;;4995033;28;20040;-72
2023/09/12 06:50:57;;;;;;;58.97;32.55;;;;;;;;;;4984309;28;20133;-72
2023/09/12 06:53:23;;;;;;;53.90;31.35;;;;;;;;;;4993396;28;20054;-72
2023/09/12 06:55:49;;;;;;;50.80;30.23;;;;;;;;;;4994613;28;20041;-72
2023/09/12 06:58:14;;;;;;;52.15;29.67;;;;;;;;;;4993040;28;20487;-73
2023/09/12 07:00:40;;;;;;;56.10;31.33;;;;;;;;;;4994661;28;20053;-72
2023/09/12 07:03:06;;;;;;;57.75;31.95;;;;;;;;;;4993084;28;20054;-72
2023/09/12 07:05:32;;;;;;;56.72;32.58;;;;;;;;;;4994042;28;20045;-72
2023/09/12 07:07:58;;;;;;;59.28;33.20;;;;;;;;;;4993011;28;20034;-73
2023/09/12 07:10:24;;;;;;;59.45;32.83;;;;;;;;;;4994243;28;20034;-72
2023/09/12 07:12:51;;;;;;;59.70;32.05;;;;;;;;;;4994614;28;20049;-72
2023/09/12 07:15:16;;;;;;;56.38;32.53;;;;;;;;;;4992451;28;20136;-73
2023/09/12 07:17:43;;;;;;;63.90;34.72;;;;;;;;;;4994147;28;20105;-72
2023/09/12 07:20:11;;;;;;;59.00;33.30;;;;;;;;;;4993741;28;20046;-73
2023/09/12 07:22:38;;;;;;;59.33;33.53;;;;;;;;;;4985564;28;20649;-73
2023/09/12 07:25:04;;;;;;;61.90;33.10;;;;;;;;;;4992389;28;20128;-72
2023/09/12 07:27:30;;;;;;;60.60;33.20;;;;;;;;;;4994118;28;20035;-73
2023/09/12 07:29:56;;;;;;;64.93;33.58;;;;;;;;;;4994171;28;20075;-73
2023/09/12 07:32:24;;;;;;;62.70;33.80;;;;;;;;;;4993841;28;20500;-73
2023/09/12 07:34:50;;;;;;;66.47;33.47;;;;;;;;;;4993825;28;20038;-72
2023/09/12 07:37:16;;;;;;;69.78;34.72;;;;;;;;;;4993809;28;20452;-72
2023/09/12 07:39:42;;;;;;;62.75;32.88;;;;;;;;;;4993579;28;20034;-72
2023/09/12 07:42:08;;;;;;;62.30;34.42;;;;;;;;;;4994027;28;20027;-72
2023/09/12 07:44:34;;;;;;;59.80;32.33;;;;;;;;;;4991845;28;20042;-73
2023/09/12 07:47:00;;;;;;;56.38;32.03;;;;;;;;;;4993371;28;20606;-73
2023/09/12 07:49:26;;;;;;;61.78;32.33;;;;;;;;;;4993411;28;20118;-72
2023/09/12 07:51:52;;;;;;;59.10;31.13;;;;;;;;;;4994027;28;20436;-72
2023/09/12 07:54:18;;;;;;;60.47;32.50;;;;;;;;;;4993947;28;20042;-72
2023/09/12 07:56:44;;;;;;;58.92;31.63;;;;;;;;;;4993081;28;20097;-72
2023/09/12 07:59:12;;;;;;;62.17;33.40;;;;;;;;;;4993217;28;20038;-72
2023/09/12 08:01:38;;;;;;;62.20;32.30;;;;;;;;;;4993835;28;20061;-72
2023/09/12 08:04:04;;;;;;;63.47;33.67;;;;;;;;;;4992871;28;20570;-72
2023/09/12 08:06:31;;;;;;;61.55;32.20;;;;;;;;;;4993383;28;20084;-73
2023/09/12 08:08:57;;;;;;;60.10;31.50;;;;;;;;;;4993416;28;20034;-72
2023/09/12 08:11:23;;;;;;;61.03;31.83;;;;;;;;;;4993191;28;20038;-72
2023/09/12 08:13:49;;;;;;;59.28;32.42;;;;;;;;;;4992664;28;20046;-72
2023/09/12 08:16:15;;;;;;;58.38;33.85;;;;;;;;;;4992907;28;20391;-72
2023/09/12 08:18:41;;;;;;;57.28;30.90;;;;;;;;;;4993456;28;20035;-72
2023/09/12 08:21:07;;;;;;;60.55;32.42;;;;;;;;;;4992939;28;20034;-72
2023/09/12 08:23:34;;;;;;;59.70;33.30;;;;;;;;;;4991868;28;20378;-72
2023/09/12 08:26:00;;;;;;;63.20;33.25;;;;;;;;;;4992626;28;20467;-72
2023/09/12 08:28:26;;;;;;;60.08;31.73;;;;;;;;;;4992659;28;20038;-72
2023/09/12 08:30:52;;;;;;;59.95;33.33;;;;;;;;;;4991995;28;20030;-72
2023/09/12 08:33:18;;;;;;;58.95;33.08;;;;;;;;;;4991564;28;20100;-72
2023/09/12 08:35:44;;;;;;;58.53;31.70;;;;;;;;;;4992491;28;20042;-72
2023/09/12 08:38:11;;;;;;;52.88;31.23;;;;;;;;;;4993149;28;20064;-73
2023/09/12 08:40:37;;;;;;;52.10;29.70;;;;;;;;;;4991152;28;20548;-72
2023/09/12 08:43:03;;;;;;;53.13;30.70;;;;;;;;;;4992722;28;20133;-73
2023/09/12 08:45:29;;;;;;;50.17;28.88;;;;;;;;;;4992888;28;20039;-73
2023/09/12 08:47:57;;;;;;;53.78;28.38;;;;;;;;;;4992454;28;20049;-72
2023/09/12 08:50:23;;;;;;;45.33;27.05;;;;;;;;;;4991063;28;20038;-72
2023/09/12 08:52:49;;;;;;;41.92;26.10;;;;;;;;;;4992907;28;20404;-72
2023/09/12 08:55:15;;;;;;;39.97;26.00;;;;;;;;;;4992140;28;20049;-73
2023/09/12 08:57:42;;;;;;;39.60;24.45;;;;;;;;;;4992511;28;20045;-72
2023/09/12 09:00:09;;;;;;;41.55;25.48;;;;;;;;;;4974745;28;20493;-73
2023/09/12 09:02:36;;;;;;;41.47;24.75;;;;;;;;;;4992107;28;20114;-73
2023/09/12 09:05:05;;;;;;;39.20;24.25;;;;;;;;;;4990616;28;20489;-73
2023/09/12 09:07:34;;;;;;;40.65;25.10;;;;;;;;;;4992680;28;20045;-73
2023/09/12 09:10:03;;;;;;;41.17;24.38;;;;;;;;;;4992672;28;20092;-73
2023/09/12 09:12:29;;;;;;;41.70;24.17;;;;;;;;;;4992155;28;20046;-73
2023/09/12 09:14:55;;;;;;;38.50;23.38;;;;;;;;;;4991320;28;20038;-72
2023/09/12 09:17:21;;;;;;;42.83;25.38;;;;;;;;;;4992304;28;20056;-73
2023/09/12 09:19:47;;;;;;;39.63;24.88;;;;;;;;;;4990414;28;20117;-72
2023/09/12 09:22:13;;;;;;;36.13;23.42;;;;;;;;;;4992618;28;20043;-73
2023/09/12 09:24:39;;;;;;;39.97;24.58;;;;;;;;;;4991996;28;20500;-73
2023/09/12 09:27:05;;;;;;;35.97;22.27;;;;;;;;;;4992591;28;20077;-73
2023/09/12 09:29:33;;;;;;;40.85;26.27;;;;;;;;;;4992128;28;20118;-73
2023/09/12 09:32:02;;;;;;;36.53;23.40;;;;;;;;;;4992278;28;20101;-72
2023/09/12 09:34:29;;;;;;;37.85;24.20;;;;;;;;;;4992482;28;20044;-72
2023/09/12 09:36:56;;;;;;;38.55;25.00;;;;;;;;;;4991481;28;20042;-72
2023/09/12 09:39:26;;;;;;;39.90;24.83;;;;;;;;;;4992315;28;20034;-72
2023/09/12 09:41:53;;;;;;;37.88;25.98;;;;;;;;;;4992377;28;20039;-72
2023/09/12 09:44:21;;;;;;;37.63;25.15;;;;;;;;;;4995604;28;20046;-72
2023/09/12 09:46:51;;;;;;;37.83;24.67;;;;;;;;;;4995614;28;20037;-72
2023/09/12 09:49:18;;;;;;;;;;;;;;;;;;4995868;28;20037;-72
2023/09/12 09:51:44;;;;;;;40.75;25.30;;;;;;;;;;4988588;28;19918;-73
2023/09/12 09:54:13;;;;;;;39.60;26.17;;;;;;;;;;4995561;28;20046;-73
2023/09/12 09:56:49;;;;;;;39.95;26.70;;;;;;;;;;4995435;28;20384;-72
2023/09/12 09:59:18;;;;;;;39.75;26.25;;;;;;;;;;4996045;28;20602;-73
2023/09/12 10:01:45;;;;;;;40.92;26.90;;;;;;;;;;4995867;28;20057;-73
2023/09/12 10:04:11;;;;;;;41.53;26.10;;;;;;;;;;4994984;28;20176;-73
2023/09/12 10:06:38;;;;;;;38.63;25.27;;;;;;;;;;4995318;28;20113;-72
2023/09/12 10:09:07;;;;;;;40.58;24.38;;;;;;;;;;4995417;28;20162;-72
2023/09/12 10:11:33;;;;;;;39.90;24.83;;;;;;;;;;4995449;28;20038;-72
2023/09/12 10:14:00;;;;;;;39.03;26.23;;;;;;;;;;4995734;28;20045;-72
2023/09/12 10:16:33;;;;;;;38.78;25.40;;;;;;;;;;4995226;28;20046;-73
2023/09/12 10:19:13;;;;;;;39.67;24.40;;;;;;;;;;4995018;28;20034;-72
2023/09/12 10:21:46;;;;;;;36.60;24.17;;;;;;;;;;4995242;28;20373;-72
2023/09/12 10:24:12;;;;;;;35.72;23.13;;;;;;;;;;4995321;28;20869;-72
2023/09/12 10:26:42;;;;;;;34.47;22.27;;;;;;;;;;4994584;28;20535;-72
2023/09/12 10:29:09;;;;;;;31.45;22.05;;;;;;;;;;4995318;28;20038;-72
2023/09/12 10:31:35;;;;;;;33.92;22.90;;;;;;;;;;4994945;28;20074;-73
2023/09/12 10:34:02;;;;;;;31.27;20.85;;;;;;;;;;4994371;28;20091;-73
2023/09/12 10:36:29;;;;;;;34.22;23.10;;;;;;;;;;4994135;28;20042;-73
2023/09/12 10:38:55;;;;;;;34.97;22.65;;;;;;;;;;4995322;28;20276;-73
2023/09/12 10:41:21;;;;;;;38.20;23.02;;;;;;;;;;4995002;28;20097;-72
2023/09/12 10:43:50;;;;;;;32.85;21.33;;;;;;;;;;4994709;28;20038;-72
2023/09/12 10:46:17;;;;;;;35.40;22.40;;;;;;;;;;4994319;28;20038;-73
2023/09/12 10:48:43;;;;;;;31.70;21.75;;;;;;;;;;4995162;28;20410;-72
2023/09/12 10:51:10;;;;;;;32.85;22.38;;;;;;;;;;4993561;28;20046;-72
2023/09/12 10:53:36;;;;;;;34.30;23.15;;;;;;;;;;4976733;28;20046;-73
2023/09/12 10:56:08;;;;;;;37.70;22.35;;;;;;;;;;4993690;28;20370;-73
2023/09/12 10:58:54;;;;;;;35.83;22.80;;;;;;;;;;4990997;28;20177;-72
2023/09/12 11:01:26;;;;;;;31.45;20.80;;;;;;;;;;4991149;28;20038;-72
2023/09/12 11:03:52;;;;;;;31.92;21.85;;;;;;;;;;4993160;28;20053;-72
2023/09/12 11:06:22;;;;;;;31.50;21.60;;;;;;;;;;4992919;28;20096;-72
2023/09/12 11:09:07;;;;;;;34.72;22.10;;;;;;;;;;4994161;28;20113;-73
2023/09/12 11:11:33;;;;;;;32.17;22.20;;;;;;;;;;4992827;28;20061;-73
2023/09/12 11:14:08;;;;;;;34.45;21.35;;;;;;;;;;4994702;28;20038;-73
2023/09/12 11:16:37;;;;;;;31.00;21.98;;;;;;;;;;4991812;28;20046;-73
2023/09/12 11:19:12;;;;;;;32.47;20.95;;;;;;;;;;4994552;28;20034;-73
2023/09/12 11:21:38;;;;;;;32.03;22.83;;;;;;;;;;4994549;28;20093;-73
2023/09/12 11:24:04;;;;;;;30.25;21.58;;;;;;;;;;4992730;28;20050;-73
2023/09/12 11:26:30;;;;;;;31.27;20.85;;;;;;;;;;4993958;28;20042;-73
2023/09/12 11:28:56;;;;;;;30.25;20.83;;;;;;;;;;4994481;28;20034;-73
2023/09/12 11:31:28;;;;;;;31.92;20.52;;;;;;;;;;4993083;28;20038;-73
2023/09/12 11:33:54;;;;;;;31.67;21.20;;;;;;;;;;4993655;28;20166;-73
2023/09/12 11:36:20;;;;;;;31.25;21.08;;;;;;;;;;4992858;28;20245;-73
2023/09/12 11:38:50;;;;;;;30.25;21.33;;;;;;;;;;4993825;28;20142;-73
2023/09/12 11:41:36;;;;;;;29.30;20.55;;;;;;;;;;4993561;28;20046;-73
2023/09/12 11:44:03;;;;;;;28.65;20.27;;;;;;;;;;4993659;28;20042;-73
2023/09/12 11:46:30;;;;;;;29.08;20.45;;;;;;;;;;4993419;28;20058;-73
2023/09/12 11:48:57;;;;;;;28.02;19.27;;;;;;;;;;4993696;28;20444;-73
2023/09/12 11:51:26;;;;;;;29.70;19.48;;;;;;;;;;4985739;28;20042;-73
2023/09/12 11:53:53;;;;;;;29.85;20.38;;;;;;;;;;4993637;28;20464;-73
2023/09/12 11:56:19;;;;;;;31.17;20.63;;;;;;;;;;4991895;28;20100;-73
2023/09/12 11:58:45;;;;;;;32.05;19.05;;;;;;;;;;4993169;28;20042;-73
2023/09/12 12:01:14;;;;;;;25.92;19.02;;;;;;;;;;4992177;28;20096;-73
2023/09/12 12:03:40;;;;;;;26.45;19.30;;;;;;;;;;4993223;28;20050;-73
2023/09/12 12:06:06;;;;;;;27.70;17.58;;;;;;;;;;4992093;28;20039;-72
2023/09/12 12:08:32;;;;;;;28.92;18.50;;;;;;;;;;4993197;28;20125;-72
2023/09/12 12:10:58;;;;;;;25.17;17.83;;;;;;;;;;4993433;28;20125;-72
2023/09/12 12:13:24;;;;;;;25.45;17.25;;;;;;;;;;4992115;28;20049;-72
2023/09/12 12:15:50;;;;;;;24.27;17.65;;;;;;;;;;4992831;28;20046;-73
2023/09/12 12:18:16;;;;;;;26.30;18.80;;;;;;;;;;4993172;28;20070;-73
2023/09/12 12:20:42;;;;;;;27.98;17.92;;;;;;;;;;4993369;28;20065;-73
2023/09/12 12:23:08;;;;;;;22.02;15.57;;;;;;;;;;4992499;28;20042;-73
2023/09/12 12:25:35;;;;;;;22.98;16.30;;;;;;;;;;4993008;28;20034;-73
2023/09/12 12:28:02;;;;;;;24.08;16.02;;;;;;;;;;4991361;28;20079;-73
2023/09/12 12:30:31;;;;;;;24.85;16.80;;;;;;;;;;4993286;28;20549;-73
2023/09/12 12:32:57;;;;;;;21.48;14.45;;;;;;;;;;4992788;28;20042;-73
2023/09/12 12:35:24;;;;;;;25.23;18.67;;;;;;;;;;4991427;28;20053;-73
2023/09/12 12:37:51;;;;;;;26.75;19.02;;;;;;;;;;4992515;28;20053;-73
2023/09/12 12:40:17;;;;;;;24.40;16.88;;;;;;;;;;4992744;28;20049;-73
2023/09/12 12:42:46;;;;;;;20.40;16.05;;;;;;;;;;4992467;28;20113;-73
2023/09/12 12:45:22;;;;;;;23.80;17.50;;;;;;;;;;4993027;28;20045;-73
2023/09/12 12:47:51;;;;;;;23.45;16.50;;;;;;;;;;4992526;28;20034;-73
2023/09/12 12:50:20;;;;;;;24.15;16.08;;;;;;;;;;4992890;28;20443;-73
2023/09/12 12:52:47;;;;;;;22.35;15.60;;;;;;;;;;4992432;28;20166;-73
2023/09/12 12:55:14;;;;;;;25.95;17.58;;;;;;;;;;4992557;28;20034;-73
2023/09/12 12:57:40;;;;;;;22.23;15.52;;;;;;;;;;4991897;28;20042;-72
2023/09/12 13:00:10;;;;;;;23.70;16.58;;;;;;;;;;4991406;28;20124;-72
2023/09/12 13:02:40;;;;;;;18.50;14.43;;;;;;;;;;4991391;28;20059;-72
2023/09/12 13:05:19;;;;;;;19.63;14.13;;;;;;;;;;4992037;28;20499;-72
2023/09/12 13:07:45;;;;;;;18.25;13.63;;;;;;;;;;4974585;28;20096;-72
2023/09/12 13:10:11;;;;;;;16.77;12.38;;;;;;;;;;4992953;28;20069;-72
2023/09/12 13:12:37;;;;;;;19.52;12.88;;;;;;;;;;4991092;28;20608;-72
2023/09/12 13:15:04;;;;;;;19.73;12.63;;;;;;;;;;4992557;28;20047;-73
2023/09/12 13:17:31;;;;;;;14.65;11.20;;;;;;;;;;4993141;28;20042;-73
2023/09/12 13:19:57;;;;;;;16.60;11.00;;;;;;;;;;4996439;28;20065;-73
2023/09/12 13:22:23;;;;;;;14.55;10.23;;;;;;;;;;4995971;28;20449;-73
2023/09/12 13:24:49;;;;;;;14.60;10.25;;;;;;;;;;4996770;28;20061;-72
2023/09/12 13:27:15;;;;;;;13.10;9.45;;;;;;;;;;4996549;28;20096;-72
2023/09/12 13:29:40;;;;;;;15.50;10.77;;;;;;;;;;4995301;28;20578;-72
2023/09/12 13:32:07;;;;;;;16.08;9.82;;;;;;;;;;4996539;28;20039;-72
2023/09/12 13:34:32;;;;;;;14.18;10.30;;;;;;;;;;4995987;28;20057;-72
2023/09/12 13:36:58;;;;;;;14.10;10.40;;;;;;;;;;4996101;28;20518;-72
2023/09/12 13:39:25;;;;;;;17.13;11.68;;;;;;;;;;4995908;28;20046;-72
2023/09/12 13:41:51;;;;;;;15.95;11.15;;;;;;;;;;4996256;28;20388;-72
2023/09/12 13:44:17;;;;;;;14.20;9.80;;;;;;;;;;4995823;28;20038;-73
2023/09/12 13:46:47;;;;;;;12.52;9.63;;;;;;;;;;4992544;28;20057;-72
2023/09/12 13:49:13;;;;;;;13.27;9.57;;;;;;;;;;4990959;28;20038;-72
2023/09/12 13:51:39;;;;;;;12.70;8.75;;;;;;;;;;4996390;28;20038;-72
2023/09/12 13:54:06;;;;;;;14.40;9.90;;;;;;;;;;4996230;28;20511;-72
2023/09/12 13:56:32;;;;;;;13.05;8.60;;;;;;;;;;4995284;28;20043;-72
2023/09/12 13:58:58;;;;;;;14.15;9.50;;;;;;;;;;4995710;28;20026;-72
2023/09/12 14:01:24;;;;;;;12.63;8.68;;;;;;;;;;4995903;28;20034;-72
2023/09/12 14:03:50;;;;;;;13.65;9.32;;;;;;;;;;4993513;28;20045;-72
2023/09/12 14:06:16;;;;;;;11.48;8.48;;;;;;;;;;4995831;28;20118;-72
2023/09/12 14:08:42;;;;;;;11.00;8.10;;;;;;;;;;4995952;28;20452;-72
2023/09/12 14:11:08;;;;;;;12.52;9.60;;;;;;;;;;4995442;28;20034;-72
2023/09/12 14:13:34;;;;;;;13.07;9.55;;;;;;;;;;4995262;28;20093;-72
2023/09/12 14:16:00;;;;;;;14.18;9.65;;;;;;;;;;4995470;28;20038;-72